sensor_id;sensor_type;location;lat;lon;timestamp;temperature;humidity
45137;DHT22;30894;51.740;19.498;2022-12-29T00:00:04;5.40;99.90
45137;DHT22;30894;51.740;19.498;2022-12-29T00:02:31;5.40;99.90
45137;DHT22;30894;51.740;19.498;2022-12-29T00:04:58;5.30;99.90
45137;DHT22;30894;51.740;19.498;2022-12-29T00:07:24;5.30;99.90
45137;DHT22;30894;51.740;19.498;2022-12-29T00:09:50;5.30;99.90
45137;DHT22;30894;51.740;19.498;2022-12-29T00:12:16;5.30;99.90
45137;DHT22;30894;51.740;19.498;2022-12-29T00:14:42;5.30;99.90
45137;DHT22;30894;51.740;19.498;2022-12-29T00:17:26;5.30;99.90
45137;DHT22;30894;51.740;19.498;2022-12-29T00:19:53;5.30;99.90
45137;DHT22;30894;51.740;19.498;2022-12-29T00:22:37;5.40;99.90
45137;DHT22;30894;51.740;19.498;2022-12-29T00:25:22;5.40;99.90
45137;DHT22;30894;51.740;19.498;2022-12-29T00:28:08;5.40;99.90
45137;DHT22;30894;51.740;19.498;2022-12-29T00:30:53;5.40;99.90
45137;DHT22;30894;51.740;19.498;2022-12-29T00:33:37;5.50;99.90
45137;DHT22;30894;51.740;19.498;2022-12-29T00:36:23;5.50;99.90
45137;DHT22;30894;51.740;19.498;2022-12-29T00:38:57;5.40;99.90
45137;DHT22;30894;51.740;19.498;2022-12-29T00:41:44;5.40;99.90
45137;DHT22;30894;51.740;19.498;2022-12-29T00:44:29;5.40;99.90
45137;DHT22;30894;51.740;19.498;2022-12-29T00:46:55;5.50;99.90
45137;DHT22;30894;51.740;19.498;2022-12-29T00:49:21;5.40;99.90
45137;DHT22;30894;51.740;19.498;2022-12-29T00:52:05;5.40;99.90
45137;DHT22;30894;51.740;19.498;2022-12-29T00:54:38;5.40;99.90
45137;DHT22;30894;51.740;19.498;2022-12-29T00:57:07;5.40;99.90
45137;DHT22;30894;51.740;19.498;2022-12-29T00:59:36;5.40;99.90
45137;DHT22;30894;51.740;19.498;2022-12-29T01:02:03;5.30;99.90
45137;DHT22;30894;51.740;19.498;2022-12-29T01:04:29;5.30;99.90
45137;DHT22;30894;51.740;19.498;2022-12-29T01:06:55;5.30;99.90
45137;DHT22;30894;51.740;19.498;2022-12-29T01:09:21;5.30;99.90
45137;DHT22;30894;51.740;19.498;2022-12-29T01:12:08;5.30;99.90
45137;DHT22;30894;51.740;19.498;2022-12-29T01:14:34;5.30;99.90
45137;DHT22;30894;51.740;19.498;2022-12-29T01:17:01;5.40;99.90
45137;DHT22;30894;51.740;19.498;2022-12-29T01:19:27;5.40;99.90
45137;DHT22;30894;51.740;19.498;2022-12-29T01:21:53;5.40;99.90
45137;DHT22;30894;51.740;19.498;2022-12-29T01:24:19;5.40;99.90
45137;DHT22;30894;51.740;19.498;2022-12-29T01:26:46;5.40;99.90
45137;DHT22;30894;51.740;19.498;2022-12-29T01:29:13;5.40;99.90
45137;DHT22;30894;51.740;19.498;2022-12-29T01:31:39;5.40;99.90
45137;DHT22;30894;51.740;19.498;2022-12-29T01:34:05;5.40;99.90
45137;DHT22;30894;51.740;19.498;2022-12-29T01:36:32;5.40;99.90
45137;DHT22;30894;51.740;19.498;2022-12-29T01:38:58;5.50;99.90
45137;DHT22;30894;51.740;19.498;2022-12-29T01:41:24;5.50;99.90
45137;DHT22;30894;51.740;19.498;2022-12-29T01:43:53;5.60;99.90
45137;DHT22;30894;51.740;19.498;2022-12-29T01:46:43;5.60;99.90
45137;DHT22;30894;51.740;19.498;2022-12-29T01:49:23;5.60;99.90
45137;DHT22;30894;51.740;19.498;2022-12-29T01:51:59;5.60;99.90
45137;DHT22;30894;51.740;19.498;2022-12-29T01:57:06;5.70;99.90
45137;DHT22;30894;51.740;19.498;2022-12-29T01:59:41;5.70;99.90
45137;DHT22;30894;51.740;19.498;2022-12-29T02:02:09;5.70;99.90
45137;DHT22;30894;51.740;19.498;2022-12-29T02:04:40;5.70;99.90
45137;DHT22;30894;51.740;19.498;2022-12-29T02:07:21;5.80;99.90
45137;DHT22;30894;51.740;19.498;2022-12-29T02:09:49;5.80;99.90
45137;DHT22;30894;51.740;19.498;2022-12-29T02:12:18;5.80;99.90
45137;DHT22;30894;51.740;19.498;2022-12-29T02:14:46;5.80;99.90
45137;DHT22;30894;51.740;19.498;2022-12-29T02:17:38;5.80;99.90
45137;DHT22;30894;51.740;19.498;2022-12-29T02:35:40;5.70;99.90
45137;DHT22;30894;51.740;19.498;2022-12-29T02:38:25;5.70;99.90
45137;DHT22;30894;51.740;19.498;2022-12-29T02:41:33;5.70;99.90
45137;DHT22;30894;51.740;19.498;2022-12-29T02:44:15;5.60;99.90
45137;DHT22;30894;51.740;19.498;2022-12-29T02:52:35;5.60;99.90
45137;DHT22;30894;51.740;19.498;2022-12-29T02:55:05;5.60;99.90
45137;DHT22;30894;51.740;19.498;2022-12-29T02:57:34;5.60;99.90
45137;DHT22;30894;51.740;19.498;2022-12-29T03:08:21;5.60;99.90
45137;DHT22;30894;51.740;19.498;2022-12-29T03:19:31;5.50;99.90
45137;DHT22;30894;51.740;19.498;2022-12-29T03:22:13;5.50;99.90
45137;DHT22;30894;51.740;19.498;2022-12-29T03:25:18;5.50;99.90
45137;DHT22;30894;51.740;19.498;2022-12-29T03:28:11;5.50;99.90
45137;DHT22;30894;51.740;19.498;2022-12-29T03:30:40;5.50;99.90
45137;DHT22;30894;51.740;19.498;2022-12-29T03:33:10;5.50;99.90
45137;DHT22;30894;51.740;19.498;2022-12-29T03:35:40;5.60;99.90
45137;DHT22;30894;51.740;19.498;2022-12-29T03:38:13;5.60;99.90
45137;DHT22;30894;51.740;19.498;2022-12-29T03:40:45;5.50;99.90
45137;DHT22;30894;51.740;19.498;2022-12-29T03:43:19;5.60;99.90
45137;DHT22;30894;51.740;19.498;2022-12-29T03:45:46;5.50;99.90
45137;DHT22;30894;51.740;19.498;2022-12-29T03:48:12;5.50;99.90
45137;DHT22;30894;51.740;19.498;2022-12-29T03:50:38;5.50;99.90
45137;DHT22;30894;51.740;19.498;2022-12-29T03:53:04;5.50;99.90
45137;DHT22;30894;51.740;19.498;2022-12-29T03:55:30;5.50;99.90
45137;DHT22;30894;51.740;19.498;2022-12-29T03:57:56;5.50;99.90
45137;DHT22;30894;51.740;19.498;2022-12-29T04:00:26;5.40;99.90
45137;DHT22;30894;51.740;19.498;2022-12-29T04:02:52;5.40;99.90
45137;DHT22;30894;51.740;19.498;2022-12-29T04:05:18;5.50;99.90
45137;DHT22;30894;51.740;19.498;2022-12-29T04:07:44;5.50;99.90
45137;DHT22;30894;51.740;19.498;2022-12-29T04:10:10;5.40;99.90
45137;DHT22;30894;51.740;19.498;2022-12-29T04:12:36;5.40;99.90
45137;DHT22;30894;51.740;19.498;2022-12-29T04:15:02;5.40;99.90
45137;DHT22;30894;51.740;19.498;2022-12-29T04:17:29;5.40;99.90
45137;DHT22;30894;51.740;19.498;2022-12-29T04:19:55;5.40;99.90
45137;DHT22;30894;51.740;19.498;2022-12-29T04:22:41;5.40;99.90
45137;DHT22;30894;51.740;19.498;2022-12-29T04:25:08;5.40;99.90
45137;DHT22;30894;51.740;19.498;2022-12-29T04:27:34;5.50;99.90
45137;DHT22;30894;51.740;19.498;2022-12-29T04:30:00;5.60;99.90
45137;DHT22;30894;51.740;19.498;2022-12-29T04:32:26;5.70;99.90
45137;DHT22;30894;51.740;19.498;2022-12-29T04:34:52;5.60;99.90
45137;DHT22;30894;51.740;19.498;2022-12-29T04:37:18;5.60;99.90
45137;DHT22;30894;51.740;19.498;2022-12-29T04:39:45;5.60;99.90
45137;DHT22;30894;51.740;19.498;2022-12-29T04:42:10;5.60;99.90
45137;DHT22;30894;51.740;19.498;2022-12-29T04:44:37;5.60;99.90
45137;DHT22;30894;51.740;19.498;2022-12-29T04:47:03;5.70;99.90
45137;DHT22;30894;51.740;19.498;2022-12-29T04:49:29;5.70;99.90
45137;DHT22;30894;51.740;19.498;2022-12-29T04:51:55;5.70;99.90
45137;DHT22;30894;51.740;19.498;2022-12-29T04:54:21;5.70;99.90
45137;DHT22;30894;51.740;19.498;2022-12-29T04:56:51;5.70;99.90
45137;DHT22;30894;51.740;19.498;2022-12-29T04:59:17;5.60;99.90
45137;DHT22;30894;51.740;19.498;2022-12-29T05:01:43;5.60;99.90
45137;DHT22;30894;51.740;19.498;2022-12-29T05:04:09;5.50;99.90
45137;DHT22;30894;51.740;19.498;2022-12-29T05:06:35;5.60;99.90
45137;DHT22;30894;51.740;19.498;2022-12-29T05:09:01;5.50;99.90
45137;DHT22;30894;51.740;19.498;2022-12-29T05:11:28;5.50;99.90
45137;DHT22;30894;51.740;19.498;2022-12-29T05:13:54;5.50;99.90
45137;DHT22;30894;51.740;19.498;2022-12-29T05:16:20;5.40;99.90
45137;DHT22;30894;51.740;19.498;2022-12-29T05:18:47;5.40;99.90
45137;DHT22;30894;51.740;19.498;2022-12-29T05:21:12;5.40;99.90
45137;DHT22;30894;51.740;19.498;2022-12-29T05:23:39;5.50;99.90
45137;DHT22;30894;51.740;19.498;2022-12-29T05:26:05;5.60;99.90
45137;DHT22;30894;51.740;19.498;2022-12-29T05:28:31;5.60;99.90
45137;DHT22;30894;51.740;19.498;2022-12-29T05:30:57;5.60;99.90
45137;DHT22;30894;51.740;19.498;2022-12-29T05:33:23;5.50;99.90
45137;DHT22;30894;51.740;19.498;2022-12-29T05:35:52;5.50;99.90
45137;DHT22;30894;51.740;19.498;2022-12-29T05:38:22;5.50;99.90
45137;DHT22;30894;51.740;19.498;2022-12-29T05:40:47;5.50;99.90
45137;DHT22;30894;51.740;19.498;2022-12-29T05:43:14;5.50;99.90
45137;DHT22;30894;51.740;19.498;2022-12-29T05:45:40;5.60;99.90
45137;DHT22;30894;51.740;19.498;2022-12-29T05:48:06;5.60;99.90
45137;DHT22;30894;51.740;19.498;2022-12-29T05:50:32;5.60;99.90
45137;DHT22;30894;51.740;19.498;2022-12-29T05:52:58;5.70;99.90
45137;DHT22;30894;51.740;19.498;2022-12-29T05:55:24;5.70;99.90
45137;DHT22;30894;51.740;19.498;2022-12-29T05:57:50;5.60;99.90
45137;DHT22;30894;51.740;19.498;2022-12-29T06:00:16;5.60;99.90
45137;DHT22;30894;51.740;19.498;2022-12-29T06:02:43;5.60;99.90
45137;DHT22;30894;51.740;19.498;2022-12-29T06:05:09;5.60;99.90
45137;DHT22;30894;51.740;19.498;2022-12-29T06:07:35;5.60;99.90
45137;DHT22;30894;51.740;19.498;2022-12-29T06:10:02;5.60;99.90
45137;DHT22;30894;51.740;19.498;2022-12-29T06:12:29;5.60;99.90
45137;DHT22;30894;51.740;19.498;2022-12-29T06:14:54;5.60;99.90
45137;DHT22;30894;51.740;19.498;2022-12-29T06:17:24;5.70;99.90
45137;DHT22;30894;51.740;19.498;2022-12-29T06:19:51;5.80;99.90
45137;DHT22;30894;51.740;19.498;2022-12-29T06:22:17;5.90;99.90
45137;DHT22;30894;51.740;19.498;2022-12-29T06:24:43;6.00;99.90
45137;DHT22;30894;51.740;19.498;2022-12-29T06:27:09;5.90;99.90
45137;DHT22;30894;51.740;19.498;2022-12-29T06:29:36;5.80;99.90
45137;DHT22;30894;51.740;19.498;2022-12-29T06:32:03;5.70;99.90
45137;DHT22;30894;51.740;19.498;2022-12-29T06:34:29;5.50;99.90
45137;DHT22;30894;51.740;19.498;2022-12-29T06:36:56;5.40;99.90
45137;DHT22;30894;51.740;19.498;2022-12-29T06:39:22;5.20;99.90
45137;DHT22;30894;51.740;19.498;2022-12-29T06:41:52;5.10;99.90
45137;DHT22;30894;51.740;19.498;2022-12-29T06:44:22;5.00;99.90
45137;DHT22;30894;51.740;19.498;2022-12-29T06:46:49;4.90;99.90
45137;DHT22;30894;51.740;19.498;2022-12-29T06:49:15;5.00;99.90
45137;DHT22;30894;51.740;19.498;2022-12-29T06:51:42;5.10;99.90
45137;DHT22;30894;51.740;19.498;2022-12-29T06:54:08;5.20;99.90
45137;DHT22;30894;51.740;19.498;2022-12-29T06:56:34;5.30;99.90
45137;DHT22;30894;51.740;19.498;2022-12-29T06:59:00;5.30;99.90
45137;DHT22;30894;51.740;19.498;2022-12-29T07:01:27;5.30;99.90
45137;DHT22;30894;51.740;19.498;2022-12-29T07:03:53;5.40;99.90
45137;DHT22;30894;51.740;19.498;2022-12-29T07:06:20;5.50;99.90
45137;DHT22;30894;51.740;19.498;2022-12-29T07:08:47;5.60;99.90
45137;DHT22;30894;51.740;19.498;2022-12-29T07:11:14;5.70;99.90
45137;DHT22;30894;51.740;19.498;2022-12-29T07:13:43;5.80;99.90
45137;DHT22;30894;51.740;19.498;2022-12-29T07:16:10;5.80;99.90
45137;DHT22;30894;51.740;19.498;2022-12-29T07:18:36;5.90;99.90
45137;DHT22;30894;51.740;19.498;2022-12-29T07:21:03;6.00;99.90
45137;DHT22;30894;51.740;19.498;2022-12-29T07:23:29;6.10;99.90
45137;DHT22;30894;51.740;19.498;2022-12-29T07:26:04;6.10;99.90
45137;DHT22;30894;51.740;19.498;2022-12-29T07:28:35;6.10;99.90
45137;DHT22;30894;51.740;19.498;2022-12-29T07:31:04;6.30;99.90
45137;DHT22;30894;51.740;19.498;2022-12-29T07:33:32;6.30;99.90
45137;DHT22;30894;51.740;19.498;2022-12-29T07:36:01;6.40;99.90
45137;DHT22;30894;51.740;19.498;2022-12-29T07:38:28;6.40;99.90
45137;DHT22;30894;51.740;19.498;2022-12-29T07:40:58;6.40;99.90
45137;DHT22;30894;51.740;19.498;2022-12-29T07:43:25;6.50;99.90
45137;DHT22;30894;51.740;19.498;2022-12-29T07:45:51;6.50;99.90
45137;DHT22;30894;51.740;19.498;2022-12-29T07:48:18;6.50;99.90
45137;DHT22;30894;51.740;19.498;2022-12-29T07:50:44;6.60;99.90
45137;DHT22;30894;51.740;19.498;2022-12-29T07:53:11;6.60;99.90
45137;DHT22;30894;51.740;19.498;2022-12-29T07:55:37;6.60;99.90
45137;DHT22;30894;51.740;19.498;2022-12-29T07:58:04;6.60;99.90
45137;DHT22;30894;51.740;19.498;2022-12-29T08:00:30;6.70;99.90
45137;DHT22;30894;51.740;19.498;2022-12-29T08:02:57;6.80;99.90
45137;DHT22;30894;51.740;19.498;2022-12-29T08:05:23;6.80;99.90
45137;DHT22;30894;51.740;19.498;2022-12-29T08:07:49;6.90;99.90
45137;DHT22;30894;51.740;19.498;2022-12-29T08:10:16;6.90;99.90
45137;DHT22;30894;51.740;19.498;2022-12-29T08:12:43;6.90;99.90
45137;DHT22;30894;51.740;19.498;2022-12-29T08:15:11;6.90;99.90
45137;DHT22;30894;51.740;19.498;2022-12-29T08:17:37;7.00;99.90
45137;DHT22;30894;51.740;19.498;2022-12-29T08:20:04;7.00;99.90
45137;DHT22;30894;51.740;19.498;2022-12-29T08:22:33;7.00;99.90
45137;DHT22;30894;51.740;19.498;2022-12-29T08:25:00;7.10;99.90
45137;DHT22;30894;51.740;19.498;2022-12-29T08:27:26;7.10;99.90
45137;DHT22;30894;51.740;19.498;2022-12-29T08:29:53;7.20;99.90
45137;DHT22;30894;51.740;19.498;2022-12-29T08:32:22;7.30;99.90
45137;DHT22;30894;51.740;19.498;2022-12-29T08:34:48;7.30;99.90
45137;DHT22;30894;51.740;19.498;2022-12-29T08:37:14;7.40;99.90
45137;DHT22;30894;51.740;19.498;2022-12-29T08:39:41;7.50;99.90
45137;DHT22;30894;51.740;19.498;2022-12-29T08:42:07;7.50;99.90
45137;DHT22;30894;51.740;19.498;2022-12-29T08:44:33;7.60;99.90
45137;DHT22;30894;51.740;19.498;2022-12-29T08:46:59;7.60;99.90
45137;DHT22;30894;51.740;19.498;2022-12-29T08:49:25;7.70;99.90
45137;DHT22;30894;51.740;19.498;2022-12-29T08:51:51;7.60;99.90
45137;DHT22;30894;51.740;19.498;2022-12-29T08:54:18;7.70;99.90
45137;DHT22;30894;51.740;19.498;2022-12-29T08:56:44;7.80;99.90
45137;DHT22;30894;51.740;19.498;2022-12-29T08:59:11;7.80;99.90
45137;DHT22;30894;51.740;19.498;2022-12-29T09:01:37;7.80;99.90
45137;DHT22;30894;51.740;19.498;2022-12-29T09:04:07;7.90;99.90
45137;DHT22;30894;51.740;19.498;2022-12-29T09:06:34;7.90;99.90
45137;DHT22;30894;51.740;19.498;2022-12-29T09:09:01;7.90;99.90
45137;DHT22;30894;51.740;19.498;2022-12-29T09:11:27;8.00;99.90
45137;DHT22;30894;51.740;19.498;2022-12-29T09:13:54;8.00;99.90
45137;DHT22;30894;51.740;19.498;2022-12-29T09:16:22;7.90;99.90
45137;DHT22;30894;51.740;19.498;2022-12-29T09:18:49;7.90;99.90
45137;DHT22;30894;51.740;19.498;2022-12-29T09:21:15;7.90;99.90
45137;DHT22;30894;51.740;19.498;2022-12-29T09:23:41;7.90;99.90
45137;DHT22;30894;51.740;19.498;2022-12-29T09:26:08;8.00;99.90
45137;DHT22;30894;51.740;19.498;2022-12-29T09:28:35;8.10;99.90
45137;DHT22;30894;51.740;19.498;2022-12-29T09:31:02;8.30;99.90
45137;DHT22;30894;51.740;19.498;2022-12-29T09:33:31;8.40;99.90
45137;DHT22;30894;51.740;19.498;2022-12-29T09:35:59;8.50;99.90
45137;DHT22;30894;51.740;19.498;2022-12-29T09:38:26;8.50;99.90
45137;DHT22;30894;51.740;19.498;2022-12-29T09:40:56;8.70;99.90
45137;DHT22;30894;51.740;19.498;2022-12-29T09:51:31;9.10;99.90
45137;DHT22;30894;51.740;19.498;2022-12-29T09:54:02;9.10;99.90
45137;DHT22;30894;51.740;19.498;2022-12-29T09:56:44;9.10;99.90
45137;DHT22;30894;51.740;19.498;2022-12-29T09:59:19;9.10;99.90
45137;DHT22;30894;51.740;19.498;2022-12-29T10:01:53;9.10;99.90
45137;DHT22;30894;51.740;19.498;2022-12-29T10:04:27;9.10;99.90
45137;DHT22;30894;51.740;19.498;2022-12-29T10:06:54;9.20;99.90
45137;DHT22;30894;51.740;19.498;2022-12-29T10:09:31;9.20;99.90
45137;DHT22;30894;51.740;19.498;2022-12-29T10:12:26;9.20;99.90
45137;DHT22;30894;51.740;19.498;2022-12-29T10:21:17;9.30;99.90
45137;DHT22;30894;51.740;19.498;2022-12-29T10:23:52;9.40;99.90
45137;DHT22;30894;51.740;19.498;2022-12-29T10:26:23;9.30;99.90
45137;DHT22;30894;51.740;19.498;2022-12-29T10:29:03;9.30;99.90
45137;DHT22;30894;51.740;19.498;2022-12-29T10:31:43;9.20;99.90
45137;DHT22;30894;51.740;19.498;2022-12-29T10:36:58;9.40;99.90
45137;DHT22;30894;51.740;19.498;2022-12-29T10:39:43;9.40;99.90
45137;DHT22;30894;51.740;19.498;2022-12-29T10:42:34;9.50;99.90
45137;DHT22;30894;51.740;19.498;2022-12-29T10:45:03;9.60;99.90
45137;DHT22;30894;51.740;19.498;2022-12-29T10:47:38;9.60;99.90
45137;DHT22;30894;51.740;19.498;2022-12-29T10:50:12;9.70;99.90
45137;DHT22;30894;51.740;19.498;2022-12-29T10:52:40;9.80;99.90
45137;DHT22;30894;51.740;19.498;2022-12-29T10:55:18;10.00;99.90
45137;DHT22;30894;51.740;19.498;2022-12-29T10:57:47;10.10;99.90
45137;DHT22;30894;51.740;19.498;2022-12-29T11:00:20;10.10;99.90
45137;DHT22;30894;51.740;19.498;2022-12-29T11:08:38;10.10;99.90
45137;DHT22;30894;51.740;19.498;2022-12-29T11:11:09;10.00;99.90
45137;DHT22;30894;51.740;19.498;2022-12-29T11:13:50;10.00;99.90
45137;DHT22;30894;51.740;19.498;2022-12-29T11:16:31;10.00;99.90
45137;DHT22;30894;51.740;19.498;2022-12-29T11:19:00;10.10;99.90
45137;DHT22;30894;51.740;19.498;2022-12-29T11:21:30;10.20;99.90
45137;DHT22;30894;51.740;19.498;2022-12-29T11:24:26;10.30;99.90
45137;DHT22;30894;51.740;19.498;2022-12-29T11:26:56;10.30;99.90
45137;DHT22;30894;51.740;19.498;2022-12-29T11:29:41;10.40;99.90
45137;DHT22;30894;51.740;19.498;2022-12-29T11:32:27;10.50;99.90
45137;DHT22;30894;51.740;19.498;2022-12-29T11:34:58;10.60;99.90
45137;DHT22;30894;51.740;19.498;2022-12-29T11:37:29;10.60;99.90
45137;DHT22;30894;51.740;19.498;2022-12-29T11:40:03;10.50;99.90
45137;DHT22;30894;51.740;19.498;2022-12-29T11:42:40;10.50;99.90
45137;DHT22;30894;51.740;19.498;2022-12-29T11:45:22;10.50;99.90
45137;DHT22;30894;51.740;19.498;2022-12-29T11:47:56;10.50;99.90
45137;DHT22;30894;51.740;19.498;2022-12-29T11:50:30;10.50;99.90
45137;DHT22;30894;51.740;19.498;2022-12-29T11:53:07;10.60;99.90
45137;DHT22;30894;51.740;19.498;2022-12-29T11:55:58;10.60;99.90
45137;DHT22;30894;51.740;19.498;2022-12-29T11:58:34;10.60;99.90
45137;DHT22;30894;51.740;19.498;2022-12-29T12:03:51;10.60;99.90
45137;DHT22;30894;51.740;19.498;2022-12-29T12:06:23;10.70;99.90
45137;DHT22;30894;51.740;19.498;2022-12-29T12:08:55;10.80;99.90
45137;DHT22;30894;51.740;19.498;2022-12-29T12:11:28;10.80;99.90
45137;DHT22;30894;51.740;19.498;2022-12-29T12:16:46;10.80;99.90
45137;DHT22;30894;51.740;19.498;2022-12-29T12:19:32;10.80;99.90
45137;DHT22;30894;51.740;19.498;2022-12-29T12:22:32;10.90;99.90
45137;DHT22;30894;51.740;19.498;2022-12-29T12:25:14;11.00;99.90
45137;DHT22;30894;51.740;19.498;2022-12-29T12:28:28;11.00;99.90
45137;DHT22;30894;51.740;19.498;2022-12-29T12:31:01;11.00;99.90
45137;DHT22;30894;51.740;19.498;2022-12-29T12:33:35;11.00;99.90
45137;DHT22;30894;51.740;19.498;2022-12-29T12:36:49;11.00;99.90
45137;DHT22;30894;51.740;19.498;2022-12-29T12:39:49;11.00;99.90
45137;DHT22;30894;51.740;19.498;2022-12-29T12:45:52;11.00;99.90
45137;DHT22;30894;51.740;19.498;2022-12-29T12:48:41;11.00;99.90
45137;DHT22;30894;51.740;19.498;2022-12-29T12:51:23;11.00;99.90
45137;DHT22;30894;51.740;19.498;2022-12-29T13:17:54;11.10;99.90
45137;DHT22;30894;51.740;19.498;2022-12-29T13:24:06;11.00;99.90
45137;DHT22;30894;51.740;19.498;2022-12-29T13:26:54;11.00;99.90
45137;DHT22;30894;51.740;19.498;2022-12-29T13:29:47;10.90;99.90
45137;DHT22;30894;51.740;19.498;2022-12-29T13:35:46;10.80;99.90
45137;DHT22;30894;51.740;19.498;2022-12-29T13:41:14;10.70;99.90
45137;DHT22;30894;51.740;19.498;2022-12-29T13:43:46;10.70;99.90
45137;DHT22;30894;51.740;19.498;2022-12-29T13:46:24;10.70;99.90
45137;DHT22;30894;51.740;19.498;2022-12-29T13:49:18;10.60;99.90
45137;DHT22;30894;51.740;19.498;2022-12-29T13:51:56;10.50;99.90
45137;DHT22;30894;51.740;19.498;2022-12-29T13:54:45;10.50;99.90
45137;DHT22;30894;51.740;19.498;2022-12-29T13:57:41;10.40;99.90
45137;DHT22;30894;51.740;19.498;2022-12-29T14:00:44;10.40;99.90
45137;DHT22;30894;51.740;19.498;2022-12-29T14:03:55;10.30;99.90
45137;DHT22;30894;51.740;19.498;2022-12-29T14:06:34;10.30;99.90
45137;DHT22;30894;51.740;19.498;2022-12-29T14:12:00;10.20;99.90
45137;DHT22;30894;51.740;19.498;2022-12-29T14:14:29;10.10;99.90
45137;DHT22;30894;51.740;19.498;2022-12-29T14:17:10;10.10;99.90
45137;DHT22;30894;51.740;19.498;2022-12-29T14:19:40;10.00;99.90
45137;DHT22;30894;51.740;19.498;2022-12-29T14:22:09;9.90;99.90
45137;DHT22;30894;51.740;19.498;2022-12-29T14:24:45;9.80;99.90
45137;DHT22;30894;51.740;19.498;2022-12-29T14:34:59;9.60;99.90
45137;DHT22;30894;51.740;19.498;2022-12-29T14:42:41;9.40;99.90
45137;DHT22;30894;51.740;19.498;2022-12-29T14:47:55;9.20;99.90
45137;DHT22;30894;51.740;19.498;2022-12-29T14:50:24;9.10;99.90
45137;DHT22;30894;51.740;19.498;2022-12-29T14:53:46;9.00;99.90
45137;DHT22;30894;51.740;19.498;2022-12-29T14:56:18;9.00;99.90
45137;DHT22;30894;51.740;19.498;2022-12-29T14:58:54;9.00;99.90
45137;DHT22;30894;51.740;19.498;2022-12-29T15:01:45;9.00;99.90
45137;DHT22;30894;51.740;19.498;2022-12-29T15:04:19;9.00;99.90
45137;DHT22;30894;51.740;19.498;2022-12-29T15:06:48;9.10;99.90
45137;DHT22;30894;51.740;19.498;2022-12-29T15:09:46;9.10;99.90
45137;DHT22;30894;51.740;19.498;2022-12-29T15:12:40;9.10;99.90
45137;DHT22;30894;51.740;19.498;2022-12-29T15:17:51;9.20;99.90
45137;DHT22;30894;51.740;19.498;2022-12-29T15:20:29;9.10;99.90
45137;DHT22;30894;51.740;19.498;2022-12-29T15:23:00;9.20;99.90
45137;DHT22;30894;51.740;19.498;2022-12-29T15:25:30;9.20;99.90
45137;DHT22;30894;51.740;19.498;2022-12-29T15:28:10;9.30;99.90
45137;DHT22;30894;51.740;19.498;2022-12-29T15:30:57;9.20;99.90
45137;DHT22;30894;51.740;19.498;2022-12-29T15:33:29;9.20;99.90
45137;DHT22;30894;51.740;19.498;2022-12-29T15:36:01;9.20;99.90
45137;DHT22;30894;51.740;19.498;2022-12-29T15:38:30;9.20;99.90
45137;DHT22;30894;51.740;19.498;2022-12-29T15:41:02;9.30;99.90
45137;DHT22;30894;51.740;19.498;2022-12-29T15:46:11;9.20;99.90
45137;DHT22;30894;51.740;19.498;2022-12-29T15:48:38;9.20;99.90
45137;DHT22;30894;51.740;19.498;2022-12-29T15:51:18;9.20;99.90
45137;DHT22;30894;51.740;19.498;2022-12-29T15:53:52;9.20;99.90
45137;DHT22;30894;51.740;19.498;2022-12-29T15:56:20;9.10;99.90
45137;DHT22;30894;51.740;19.498;2022-12-29T15:58:51;9.10;99.90
45137;DHT22;30894;51.740;19.498;2022-12-29T16:01:31;9.10;99.90
45137;DHT22;30894;51.740;19.498;2022-12-29T16:04:09;9.10;99.90
45137;DHT22;30894;51.740;19.498;2022-12-29T16:06:44;9.10;99.90
45137;DHT22;30894;51.740;19.498;2022-12-29T16:09:18;9.00;99.90
45137;DHT22;30894;51.740;19.498;2022-12-29T16:11:58;9.00;99.90
45137;DHT22;30894;51.740;19.498;2022-12-29T16:14:34;9.00;99.90
45137;DHT22;30894;51.740;19.498;2022-12-29T16:17:12;9.00;99.90
45137;DHT22;30894;51.740;19.498;2022-12-29T16:19:42;9.00;99.90
45137;DHT22;30894;51.740;19.498;2022-12-29T16:25:15;8.90;99.90
45137;DHT22;30894;51.740;19.498;2022-12-29T16:27:49;8.90;99.90
45137;DHT22;30894;51.740;19.498;2022-12-29T16:30:36;8.90;99.90
45137;DHT22;30894;51.740;19.498;2022-12-29T16:33:04;9.00;99.90
45137;DHT22;30894;51.740;19.498;2022-12-29T16:38:19;8.80;99.90
45137;DHT22;30894;51.740;19.498;2022-12-29T16:40:56;8.80;99.90
45137;DHT22;30894;51.740;19.498;2022-12-29T16:43:28;8.70;99.90
45137;DHT22;30894;51.740;19.498;2022-12-29T16:48:27;8.60;99.90
45137;DHT22;30894;51.740;19.498;2022-12-29T16:51:15;8.50;99.90
45137;DHT22;30894;51.740;19.498;2022-12-29T16:53:49;8.40;99.90
45137;DHT22;30894;51.740;19.498;2022-12-29T16:56:23;8.30;99.90
45137;DHT22;30894;51.740;19.498;2022-12-29T17:01:31;8.30;99.90
45137;DHT22;30894;51.740;19.498;2022-12-29T17:04:06;8.40;99.90
45137;DHT22;30894;51.740;19.498;2022-12-29T17:06:36;8.30;99.90
45137;DHT22;30894;51.740;19.498;2022-12-29T17:09:16;8.30;99.90
45137;DHT22;30894;51.740;19.498;2022-12-29T17:11:48;8.20;99.90
45137;DHT22;30894;51.740;19.498;2022-12-29T17:14:41;8.20;99.90
45137;DHT22;30894;51.740;19.498;2022-12-29T17:17:33;8.10;99.90
45137;DHT22;30894;51.740;19.498;2022-12-29T17:20:24;8.20;99.90
45137;DHT22;30894;51.740;19.498;2022-12-29T17:22:52;8.20;99.90
45137;DHT22;30894;51.740;19.498;2022-12-29T17:25:21;8.20;99.90
45137;DHT22;30894;51.740;19.498;2022-12-29T17:27:57;8.30;99.90
45137;DHT22;30894;51.740;19.498;2022-12-29T17:30:37;8.30;99.90
45137;DHT22;30894;51.740;19.498;2022-12-29T17:33:09;8.40;99.90
45137;DHT22;30894;51.740;19.498;2022-12-29T17:35:39;8.40;99.90
45137;DHT22;30894;51.740;19.498;2022-12-29T17:40:51;8.40;99.90
45137;DHT22;30894;51.740;19.498;2022-12-29T17:43:17;8.50;99.90
45137;DHT22;30894;51.740;19.498;2022-12-29T17:45:49;8.50;99.90
45137;DHT22;30894;51.740;19.498;2022-12-29T17:48:18;8.50;99.90
45137;DHT22;30894;51.740;19.498;2022-12-29T17:50:47;8.60;99.90
45137;DHT22;30894;51.740;19.498;2022-12-29T17:53:24;8.60;99.90
45137;DHT22;30894;51.740;19.498;2022-12-29T17:55:52;8.60;99.90
45137;DHT22;30894;51.740;19.498;2022-12-29T17:58:19;8.60;99.90
45137;DHT22;30894;51.740;19.498;2022-12-29T18:00:49;8.60;99.90
45137;DHT22;30894;51.740;19.498;2022-12-29T18:03:19;8.60;99.90
45137;DHT22;30894;51.740;19.498;2022-12-29T18:05:48;8.60;99.90
45137;DHT22;30894;51.740;19.498;2022-12-29T18:08:15;8.60;99.90
45137;DHT22;30894;51.740;19.498;2022-12-29T18:10:42;8.60;99.90
45137;DHT22;30894;51.740;19.498;2022-12-29T18:13:29;8.70;99.90
45137;DHT22;30894;51.740;19.498;2022-12-29T18:15:58;8.70;99.90
45137;DHT22;30894;51.740;19.498;2022-12-29T18:18:26;8.60;99.90
45137;DHT22;30894;51.740;19.498;2022-12-29T18:20:54;8.60;99.90
45137;DHT22;30894;51.740;19.498;2022-12-29T18:23:22;8.60;99.90